createdAt,value
2019-05-07T00:05:19.266Z,963.9
2019-05-07T00:15:23.385Z,964.1
2019-05-07T00:25:26.813Z,964.5
2019-05-07T00:35:32.721Z,964.6
2019-05-07T00:45:36.176Z,964.7
2019-05-07T00:55:39.600Z,964.8
2019-05-07T01:05:43.622Z,964.9
2019-05-07T01:15:47.027Z,965
2019-05-07T01:25:53.126Z,965
2019-05-07T01:35:56.542Z,965.5
2019-05-07T01:45:59.953Z,965.5
2019-05-07T01:56:03.785Z,965.6
2019-05-07T02:06:07.221Z,966.1
2019-05-07T02:16:12.734Z,966.3
2019-05-07T02:26:16.156Z,966.1
2019-05-07T02:36:19.608Z,965.8
2019-05-07T02:46:36.829Z,966
2019-05-07T02:56:43.847Z,965.8
2019-05-07T03:06:47.332Z,966.4
2019-05-07T03:16:54.293Z,966.1
2019-05-07T03:26:57.754Z,966.5
2019-05-07T03:37:07.062Z,966.5
2019-05-07T03:47:14.186Z,966.5
2019-05-07T03:57:17.662Z,966.6
2019-05-07T04:07:23.833Z,966.7
2019-05-07T04:17:27.726Z,966.7
2019-05-07T04:27:33.705Z,966.2
2019-05-07T04:37:37.154Z,966
2019-05-07T04:47:48.302Z,966.1
2019-05-07T04:57:53.814Z,966.2
2019-05-07T05:07:57.253Z,966
2019-05-07T05:18:03.050Z,965.6
2019-05-07T05:28:06.509Z,965
2019-05-07T05:38:12.359Z,965
2019-05-07T05:48:16.080Z,962.4
2019-05-07T05:58:19.492Z,968.9
2019-05-07T06:08:24.391Z,969.3
2019-05-07T06:18:27.847Z,968.5
2019-05-07T06:28:33.390Z,968.7
2019-05-07T06:38:36.830Z,967.6
2019-05-07T06:48:46.655Z,967
2019-05-07T06:58:52.380Z,966.8
2019-05-07T07:08:56.170Z,965.7
2019-05-07T07:18:59.615Z,966.2
2019-05-07T07:29:03.079Z,964.7
2019-05-07T07:39:06.530Z,964.3
2019-05-07T07:49:15.612Z,964.1
2019-05-07T07:59:19.044Z,963.1
2019-05-07T08:09:26.141Z,963.3
2019-05-07T08:19:29.630Z,962
2019-05-07T08:29:33.122Z,962
2019-05-07T08:39:36.570Z,962
2019-05-07T08:49:43.850Z,961.5
2019-05-07T09:00:04.946Z,968.1
2019-05-07T09:10:08.409Z,967.8
2019-05-07T09:20:12.964Z,968.2
2019-05-07T09:30:16.407Z,967.1
2019-05-07T09:40:22.003Z,967.2
2019-05-07T09:50:25.440Z,967.8
2019-05-07T10:00:28.887Z,967.6
2019-05-07T10:10:33.289Z,967.6
2019-05-07T10:20:36.717Z,967.3
2019-05-07T10:30:40.162Z,966.4
2019-05-07T10:40:43.585Z,966.6
2019-05-07T10:50:47.000Z,966.3
2019-05-07T11:00:52.644Z,965.5
2019-05-07T11:10:56.045Z,965.5
2019-05-07T11:20:59.498Z,964.2
2019-05-07T11:31:02.961Z,966.3
2019-05-07T11:41:06.388Z,965.7
2019-05-07T11:51:09.860Z,965.9
2019-05-07T12:01:13.332Z,964.9
2019-05-07T12:11:16.764Z,965.2
2019-05-07T12:21:24.625Z,964.2
2019-05-07T12:31:28.077Z,964.9
2019-05-07T12:41:34.675Z,963.9
2019-05-07T12:51:38.469Z,963.5
2019-05-07T13:01:42.565Z,965.2
2019-05-07T13:11:46.006Z,964.7
2019-05-07T13:21:50.386Z,963.9
2019-05-07T13:31:54.718Z,964.2
2019-05-07T13:41:58.204Z,963.6
2019-05-07T13:52:04.192Z,963.6
2019-05-07T14:02:07.634Z,962.7
2019-05-07T14:12:12.666Z,963.8
2019-05-07T14:22:19.615Z,963.1
2019-05-07T14:32:23.048Z,962.3
2019-05-07T14:42:26.482Z,962.4
2019-05-07T14:52:36.546Z,962.7
2019-05-07T15:02:42.567Z,962.9
2019-05-07T15:12:46.018Z,962.8
2019-05-07T15:22:52.948Z,963
2019-05-07T15:32:56.420Z,962.7
2019-05-07T15:43:02.531Z,962.6
2019-05-07T15:53:05.996Z,962.3
2019-05-07T16:03:12.194Z,962.3
2019-05-07T16:13:15.656Z,962.4
2019-05-07T16:23:19.082Z,962.2
2019-05-07T16:33:22.525Z,962.5
2019-05-07T16:43:25.962Z,962.2
2019-05-07T16:53:35.550Z,962.2
2019-05-07T17:03:38.982Z,962.1
2019-05-07T17:13:42.837Z,962.2
2019-05-07T17:23:46.282Z,962.2
2019-05-07T17:33:51.963Z,962.1
2019-05-07T17:43:55.440Z,962.6
2019-05-07T17:54:00.598Z,962.6
2019-05-07T18:04:04.070Z,962.8
2019-05-07T18:14:07.516Z,962.9
2019-05-07T18:24:17.164Z,962.9
2019-05-07T18:34:20.605Z,963.5
2019-05-07T18:44:24.072Z,956.6
2019-05-07T18:54:32.025Z,956.7
2019-05-07T19:04:35.511Z,956.7
2019-05-07T19:14:38.961Z,957.3
2019-05-07T19:24:48.501Z,958.6
2019-05-07T19:34:53.759Z,958.3
2019-05-07T19:44:57.217Z,957.8
2019-05-07T19:55:05.190Z,958.2
2019-05-07T20:05:08.646Z,959
2019-05-07T20:15:12.089Z,958.8
2019-05-07T20:25:19.749Z,958.6
2019-05-07T20:35:23.183Z,958.7
2019-05-07T20:45:26.598Z,957.5
2019-05-07T20:55:34.425Z,957.4
2019-05-07T21:05:37.824Z,957.9
2019-05-07T21:15:42.262Z,958
2019-05-07T21:25:46.445Z,958
2019-05-07T21:35:52.790Z,958.3
2019-05-07T21:45:56.251Z,958.3
2019-05-07T21:56:05.726Z,957.9
2019-05-07T22:06:13.140Z,958.3
2019-05-07T22:16:16.590Z,958.3
2019-05-07T22:26:26.928Z,958.3
2019-05-07T22:36:33.023Z,958.3
2019-05-07T22:46:36.488Z,958.3
2019-05-07T22:56:42.291Z,958.5
2019-05-07T23:06:45.743Z,958.4
2019-05-07T23:16:49.198Z,958.6
2019-05-07T23:26:54.223Z,958.9
2019-05-07T23:36:57.639Z,959
2019-05-07T23:47:03.152Z,958.8
2019-05-07T23:57:15.678Z,959.1
